Warning: Javascript must be enabled to use all the features on this page!


Page Loading - Please Wait...

Click to hideNews Bulletins

Peak Streamflow for the Nation

USGS 07071500 Eleven Point River near Bardley, MO

Oregon County, Missouri
Hydrologic Unit Code 11010011
Latitude  36°38'55.3", Longitude  91°12'03.0" NAD83
Drainage area 793  square miles
Gage datum 411.25 feet above NAVD88
Output formats
Table
Graph
Tab-separated file
peakfq (watstore) format
Reselect output format
Water
Year
Date Gage
Height
(feet)
Stream-
flow
(cfs)
1915 1915-08-20 19.70 44,0007
1922 1922-03-31 10.00 7,560
1923 1923-03-16 10.60 9,450
1924 1924-08-10 3.90 1,680
1925 1925-06-13 7.20 4,400
1926 1925-11-08 5.10 2,490
1927 1927-04-14 18.74 40,000
1928 1928-06-13 15.60 27,200
1929 1929-01-25 9.50 8,000
1930 1930-01-13 8.00 5,800
1931 1931-08-06 5.20 2,640
1932 1932-01-23 3.60 1,280
1933 1933-04-16 10.90 10,100
1934 1934-09-15 3.50 1,190
1935 1935-03-12 13.70 20,200
1936 1935-12-08 3.10 900
1937 1937-01-14 13.90 20,900
1938 1938-02-19 10.00 9,100
1939 1939-04-17 13.90 20,900
1940 1940-04-12 8.30 6,530
1941 1941-04-04 3.40 976
1942 1942-05-31 15.70 28,300
1943 1943-05-11 15.18 25,800
1944 1944-04-23 8.36 6,840
1945 1945-03-31 15.50 27,200
1946 1946-02-14 10.88 11,400
1947 1946-12-12 5.50 3,100
1948 1948-06-19 9.54 8,680
1949 1949-01-24 16.70 33,200
1950 1950-01-04 12.80 16,200
1951 1951-02-21 8.50 7,020
1952 1951-11-24 9.66 9,040
1953 1953-04-18 4.90 2,530
1954 1954-05-02 10.60 10,800
1955 1955-03-21 11.23 12,000
1956 1956-05-16 7.37 5,420
1957 1957-04-04 15.76 28,600
1958 1958-05-05 10.35 10,400
1959 1958-11-17 16.10 30,100
1960 1959-12-28 7.41 5,420
1961 1961-05-07 12.80 16,200
1962 1962-02-26 8.30 6,720
1963 1963-06-17 7.94 6,120
1964 1964-03-09 12.81 16,200
1965 1965-04-16 3.85 1,750
1966 1966-02-10 15.56 27,700
1967 1967-05-15 3.44 1,390
1968 1968-04-20 10.46 10,400
1969 1969-01-30 13.88 20,200
1970 1970-04-24 8.45 6,870
1971 1971-01-14 4.68 2,470
1972 1971-12-11 13.19 17,500
1973 1973-04-23 12.69 16,300
1974 1974-04-23 11.76 13,100
1975 1975-09-12 8.25 6,640
1976 1976-06-24 8.72 7,370
1977 1977-03-28 12.97 16,500
1978 1978-03-25 7.89 6,100
1979 1979-04-12 11.09 11,700
1980 1979-12-24 4.52 1,940
1981 1981-05-14 3.39 1,290
1982 1982-01-31 11.32 12,200
1983 1982-12-03 21.64 49,800
1984 1983-11-24 9.56 7,820
1985 1984-12-22 16.45 25,500
1986 1985-11-20 12.10 12,700
1987 1987-03-18 3.84 1,440
1988 1988-03-30 9.95 8,760
1989 1989-02-14 9.02 7,280
1990 1990-05-04 8.40 6,360
1991 1991-04-14 15.04 19,900
1992 1992-04-20 14.33 18,100
1993 1993-01-05 13.00 17,100
1994 1993-11-15 17.35 28,200
1995 1994-11-05 13.67 16,500
1996 1996-09-27 9.033 7,290
1997 1997-04-05 9.41 7,890
1998 1998-03-20 7.98 6,290
1999 1999-04-04 5.53 3,090
2000 2000-06-18 3.93 1,540
2001 2001-02-25 3.66 1,340
2002 2002-05-09 16.43 27,700
2003 2003-05-11 3.81 1,400
2004 2004-04-25 13.72 18,400
2005 2005-01-13 7.62 5,450
2006 2005-11-28 6.55 4,380
2007 2006-12-01 12.18 14,300
2008 2008-03-19 21.33 49,400
2009 2009-05-09 5.81 2,430
2010 2009-10-30 17.33 31,400
2011 2011-04-26 17.83 33,400
2012 2012-03-16 5.29 2,000
2013 2013-08-11 9.44 9,020
2014 2014-06-29 8.63 7,380
2015 2015-03-14 8.18 6,530
2016 2015-12-29 15.72 25,200
2017 2017-04-30 28.66 122,000
2018 2018-03-30 10.19 10,400
2019 2019-05-02 9.16 8,390
2020 2020-03-20 11.75 13,700
2021 2021-01-26 8.92 7,900
?
  Peak Gage-Height Qualification Codes.
?
  Peak Streamflow Qualification Codes.